Time;durP1;ratioP1;P1;durP2;ratioP2;P2;SDS_P1;SDS_P2;PMS_P1;PMS_P2;Temp;Humidity;BMP_temperature;BMP_pressure;BME280_temperature;BME280_humidity;BME280_pressure;Samples;Min_cycle;Max_cycle;Signal;HPM_P1;HPM_P2
2023/11/22 00:00:54;;;;;;;3.40;2.73;;;;;;;6.32;100.00;98487.03;5077827;28;20256;-77
2023/11/22 00:03:21;;;;;;;5.37;3.13;;;;;;;6.15;100.00;98490.44;5077684;28;20196;-77
2023/11/22 00:05:47;;;;;;;4.23;2.90;;;;;;;6.03;100.00;98488.38;5077763;28;20272;-77
2023/11/22 00:08:14;;;;;;;3.47;2.57;;;;;;;5.98;100.00;98490.38;5077735;28;20233;-77
2023/11/22 00:10:40;;;;;;;6.10;3.00;;;;;;;5.91;100.00;98482.84;5082585;28;20266;-77
2023/11/22 00:13:08;;;;;;;4.90;2.90;;;;;;;5.82;100.00;98488.50;5084407;28;20254;-77
2023/11/22 00:15:36;;;;;;;4.67;2.80;;;;;;;5.75;100.00;98492.28;5083724;28;20274;-77
2023/11/22 00:18:03;;;;;;;4.97;3.40;;;;;;;5.64;100.00;98495.41;5084334;28;20249;-77
2023/11/22 00:20:29;;;;;;;6.90;3.50;;;;;;;5.65;100.00;98502.34;5084278;28;20179;-77
2023/11/22 00:22:59;;;;;;;5.83;3.40;;;;;;;5.62;100.00;98506.88;5083427;28;20211;-77
2023/11/22 00:25:25;;;;;;;4.83;3.43;;;;;;;5.53;100.00;98508.13;5083779;28;20198;-77
2023/11/22 00:27:52;;;;;;;6.60;3.93;;;;;;;5.46;100.00;98506.69;5083990;28;20245;-77
2023/11/22 00:30:20;;;;;;;5.93;3.77;;;;;;;5.46;100.00;98504.06;5083945;28;20258;-77
2023/11/22 00:32:46;;;;;;;5.63;3.50;;;;;;;5.47;100.00;98518.00;5063594;28;20237;-77
2023/11/22 00:35:13;;;;;;;6.23;4.47;;;;;;;5.41;100.00;98508.63;5082469;28;20196;-77
2023/11/22 00:37:39;;;;;;;8.53;3.90;;;;;;;5.37;100.00;98517.53;5077394;28;20197;-77
2023/11/22 00:40:10;;;;;;;7.30;4.23;;;;;;;5.32;100.00;98524.75;5077280;28;20220;-78
2023/11/22 00:42:37;;;;;;;8.00;4.27;;;;;;;5.29;100.00;98526.63;5083514;28;20252;-77
2023/11/22 00:45:05;;;;;;;6.73;3.90;;;;;;;5.27;100.00;98531.09;5082623;28;20273;-76
2023/11/22 00:47:36;;;;;;;8.00;4.50;;;;;;;5.21;100.00;98542.69;5083216;28;20194;-77
2023/11/22 00:50:04;;;;;;;6.57;4.03;;;;;;;5.23;100.00;98540.84;5083143;28;20215;-77
2023/11/22 00:52:30;;;;;;;6.37;3.87;;;;;;;5.14;100.00;98541.22;5083064;28;20296;-77
2023/11/22 00:55:00;;;;;;;7.30;4.67;;;;;;;5.13;100.00;98544.75;5072323;28;20213;-76
2023/11/22 00:57:26;;;;;;;7.23;4.57;;;;;;;5.06;100.00;98545.94;5058295;28;20218;-76
2023/11/22 00:59:53;;;;;;;5.30;3.53;;;;;;;5.09;100.00;98539.72;5058582;28;20226;-77
2023/11/22 01:02:20;;;;;;;4.93;3.33;;;;;;;4.93;100.00;98551.72;5058230;28;20235;-76
2023/11/22 01:04:48;;;;;;;4.87;3.40;;;;;;;4.84;100.00;98557.34;5057863;28;20215;-76
2023/11/22 01:07:15;;;;;;;7.30;4.10;;;;;;;4.89;100.00;98561.47;5057708;28;20258;-76
2023/11/22 01:09:41;;;;;;;5.97;3.87;;;;;;;4.89;100.00;98566.72;5057985;28;20792;-76
2023/11/22 01:12:09;;;;;;;6.50;4.10;;;;;;;4.86;100.00;98569.47;5058954;28;20234;-77
2023/11/22 01:14:35;;;;;;;7.73;4.20;;;;;;;4.91;100.00;98577.13;5059092;28;20629;-77
2023/11/22 01:17:02;;;;;;;5.10;4.00;;;;;;;4.85;100.00;98573.00;5059432;28;20277;-77
2023/11/22 01:19:28;;;;;;;6.23;3.70;;;;;;;4.83;100.00;98574.81;5059154;28;20228;-78
2023/11/22 01:21:56;;;;;;;5.83;3.73;;;;;;;4.76;100.00;98578.59;5056102;28;20241;-77
2023/11/22 01:24:23;;;;;;;6.37;3.93;;;;;;;4.75;100.00;98579.50;5055692;28;20206;-78
2023/11/22 01:26:49;;;;;;;6.87;3.97;;;;;;;4.75;100.00;98581.25;5056521;28;20212;-77
2023/11/22 01:29:16;;;;;;;5.93;3.70;;;;;;;4.70;100.00;98578.81;5056067;28;20348;-77
2023/11/22 01:31:43;;;;;;;5.20;3.73;;;;;;;4.63;100.00;98589.59;5056181;28;20230;-77
2023/11/22 01:34:10;;;;;;;4.63;3.43;;;;;;;4.59;100.00;98599.31;5055954;28;20291;-77
2023/11/22 01:36:39;;;;;;;4.70;3.43;;;;;;;4.54;100.00;98605.66;5055865;28;20213;-77
2023/11/22 01:39:07;;;;;;;4.67;3.10;;;;;;;4.51;100.00;98605.75;5056035;28;20218;-77
2023/11/22 01:41:34;;;;;;;4.23;3.40;;;;;;;4.54;100.00;98603.91;5055911;28;20296;-78
2023/11/22 01:44:02;;;;;;;6.70;3.70;;;;;;;4.48;100.00;98604.13;5055528;28;20217;-77
2023/11/22 01:46:29;;;;;;;4.40;3.07;;;;;;;4.49;100.00;98612.81;5055600;28;20214;-78
2023/11/22 01:48:56;;;;;;;6.37;3.33;;;;;;;4.38;100.00;98614.97;5055352;28;20236;-77
2023/11/22 01:51:23;;;;;;;4.37;3.17;;;;;;;4.37;100.00;98624.59;5055953;28;20238;-77
2023/11/22 01:53:54;;;;;;;5.63;3.80;;;;;;;4.30;100.00;98623.13;5055222;28;20217;-78
2023/11/22 01:56:23;;;;;;;5.13;3.17;;;;;;;4.27;100.00;98632.84;5055768;28;20201;-77
2023/11/22 01:58:51;;;;;;;4.70;3.40;;;;;;;4.29;100.00;98631.84;5054794;28;20205;-77
2023/11/22 02:01:18;;;;;;;4.43;3.23;;;;;;;4.24;100.00;98639.03;5054753;28;20229;-77
2023/11/22 02:03:47;;;;;;;4.43;3.40;;;;;;;4.24;100.00;98639.03;5055121;28;20210;-77
2023/11/22 02:06:18;;;;;;;5.00;3.07;;;;;;;4.22;100.00;98640.84;5055221;28;20247;-78
2023/11/22 02:08:44;;;;;;;5.23;3.73;;;;;;;4.25;100.00;98643.38;5054857;28;20239;-77
2023/11/22 02:11:11;;;;;;;5.53;3.17;;;;;;;4.23;100.00;98650.41;5055214;28;20299;-77
2023/11/22 02:13:39;;;;;;;4.07;3.10;;;;;;;4.23;100.00;98647.78;5055023;28;20209;-77
2023/11/22 02:16:06;;;;;;;4.03;2.90;;;;;;;4.24;100.00;98659.13;5054515;28;20217;-77
2023/11/22 02:18:32;;;;;;;3.83;2.70;;;;;;;4.23;100.00;98658.25;5054812;28;20211;-77
2023/11/22 02:20:59;;;;;;;3.57;2.93;;;;;;;4.22;100.00;98666.16;5054128;28;20260;-77
2023/11/22 02:23:28;;;;;;;3.27;2.77;;;;;;;4.13;100.00;98667.34;5054369;28;20210;-77
2023/11/22 02:25:55;;;;;;;5.57;3.17;;;;;;;4.09;100.00;98657.06;5054512;28;20685;-78
2023/11/22 02:28:22;;;;;;;4.83;3.30;;;;;;;4.06;100.00;98671.09;5054243;28;20691;-77
2023/11/22 02:30:48;;;;;;;5.40;2.90;;;;;;;4.03;100.00;98671.19;5054003;28;20225;-77
2023/11/22 02:33:15;;;;;;;4.77;3.03;;;;;;;3.97;100.00;98676.63;5053670;28;20205;-78
2023/11/22 02:35:42;;;;;;;4.17;3.00;;;;;;;3.97;100.00;98675.78;5053994;28;20204;-77
2023/11/22 02:38:08;;;;;;;4.33;3.00;;;;;;;3.92;100.00;98673.31;5053755;28;20212;-78
2023/11/22 02:40:36;;;;;;;4.43;2.83;;;;;;;3.95;100.00;98673.22;5053502;28;20220;-77
2023/11/22 02:43:07;;;;;;;4.63;3.37;;;;;;;3.84;100.00;98675.34;5053050;28;20681;-77
2023/11/22 02:45:33;;;;;;;4.63;3.03;;;;;;;3.80;100.00;98684.19;5054787;28;20212;-77
2023/11/22 02:48:01;;;;;;;5.90;3.40;;;;;;;3.80;100.00;98688.56;5054718;28;20205;-77
2023/11/22 02:50:28;;;;;;;5.53;3.27;;;;;;;3.80;100.00;98696.41;5053865;28;20226;-77
2023/11/22 02:52:54;;;;;;;4.77;3.20;;;;;;;3.78;100.00;98696.47;5054058;28;20248;-77
2023/11/22 02:55:21;;;;;;;5.70;3.33;;;;;;;3.70;100.00;98685.41;5053587;28;20224;-77
2023/11/22 02:57:49;;;;;;;5.63;3.40;;;;;;;3.74;100.00;98700.06;5054116;28;20648;-78
2023/11/22 03:00:16;;;;;;;4.70;3.03;;;;;;;3.69;100.00;98707.22;5054295;28;20208;-77
2023/11/22 03:02:43;;;;;;;4.60;3.00;;;;;;;3.65;100.00;98705.63;5054083;28;20705;-77
2023/11/22 03:05:12;;;;;;;4.93;3.13;;;;;;;3.54;100.00;98702.50;5055310;28;20210;-77
2023/11/22 03:07:39;;;;;;;4.77;3.20;;;;;;;3.48;100.00;98713.13;5054615;28;20221;-77
2023/11/22 03:10:08;;;;;;;4.70;3.00;;;;;;;3.40;100.00;98717.75;5053143;28;20235;-77
2023/11/22 03:12:34;;;;;;;3.87;2.90;;;;;;;3.36;100.00;98729.19;5053080;28;20228;-78
2023/11/22 03:15:02;;;;;;;4.03;2.90;;;;;;;3.33;100.00;98729.31;5053210;28;20236;-77
2023/11/22 03:17:30;;;;;;;6.07;3.53;;;;;;;3.31;100.00;98731.09;5053294;28;20222;-77
2023/11/22 03:19:56;;;;;;;5.10;3.40;;;;;;;3.30;100.00;98733.78;5053686;28;20233;-77
2023/11/22 03:22:23;;;;;;;6.07;3.37;;;;;;;3.34;100.00;98741.47;5053290;28;20274;-77
2023/11/22 03:24:50;;;;;;;5.40;3.40;;;;;;;3.24;100.00;98739.19;5053413;28;20215;-77
2023/11/22 03:27:16;;;;;;;4.67;3.30;;;;;;;3.25;100.00;98741.72;5053179;28;20208;-77
2023/11/22 03:29:44;;;;;;;5.23;3.50;;;;;;;3.24;100.00;98740.03;5053553;28;20209;-77
2023/11/22 03:32:12;;;;;;;4.40;3.37;;;;;;;3.30;100.00;98739.84;5053428;28;20233;-77
2023/11/22 03:34:40;;;;;;;3.80;2.97;;;;;;;3.28;100.00;98752.09;5053561;28;20573;-78
2023/11/22 03:37:07;;;;;;;4.97;3.47;;;;;;;3.32;100.00;98747.63;5053138;28;20208;-77
2023/11/22 03:39:36;;;;;;;4.43;3.03;;;;;;;3.36;100.00;98749.25;5052860;28;20597;-77
2023/11/22 03:42:02;;;;;;;5.07;3.97;;;;;;;3.46;100.00;98756.75;5053070;28;20231;-76
2023/11/22 03:44:29;;;;;;;5.50;3.97;;;;;;;3.44;100.00;98761.19;5051965;28;20231;-77
2023/11/22 03:46:57;;;;;;;6.93;4.37;;;;;;;3.51;100.00;98764.44;5052519;28;20315;-77
2023/11/22 03:49:25;;;;;;;4.83;3.47;;;;;;;3.55;100.00;98772.13;5053655;28;20212;-77
2023/11/22 03:51:51;;;;;;;6.67;3.70;;;;;;;3.46;100.00;98777.66;5053193;28;20706;-77
2023/11/22 03:54:20;;;;;;;6.53;4.00;;;;;;;3.49;100.00;98774.94;5053194;28;20236;-77
2023/11/22 03:56:48;;;;;;;5.97;3.60;;;;;;;3.52;100.00;98772.25;5052575;28;20302;-77
2023/11/22 03:59:15;;;;;;;4.20;3.40;;;;;;;3.52;100.00;98785.31;5052795;28;20670;-77
2023/11/22 04:01:41;;;;;;;5.20;4.00;;;;;;;3.65;100.00;98786.63;5052424;28;20231;-77
2023/11/22 04:04:09;;;;;;;4.50;3.37;;;;;;;3.64;100.00;98774.47;5051565;28;20206;-77
2023/11/22 04:06:37;;;;;;;4.97;3.47;;;;;;;3.56;100.00;98778.22;5051778;28;20744;-77
2023/11/22 04:09:05;;;;;;;5.37;3.40;;;;;;;3.53;100.00;98773.97;5052116;28;20211;-77
2023/11/22 04:11:31;;;;;;;4.30;3.40;;;;;;;3.57;100.00;98783.41;5052253;28;20236;-77
2023/11/22 04:13:58;;;;;;;6.93;3.60;;;;;;;3.65;100.00;98791.00;5052098;28;20218;-77
2023/11/22 04:16:25;;;;;;;4.83;3.47;;;;;;;3.69;100.00;98784.78;5052256;28;20206;-77
2023/11/22 04:18:51;;;;;;;5.07;3.80;;;;;;;3.65;100.00;98793.63;5051871;28;20341;-77
2023/11/22 04:21:18;;;;;;;4.30;3.10;;;;;;;3.70;100.00;98789.09;5052011;28;20247;-77
2023/11/22 04:23:48;;;;;;;5.73;3.57;;;;;;;3.71;100.00;98794.28;5052515;28;20323;-77
2023/11/22 04:26:15;;;;;;;3.60;3.20;;;;;;;3.77;100.00;98794.09;5052738;28;20213;-77
2023/11/22 04:28:42;;;;;;;4.83;3.10;;;;;;;3.78;100.00;98793.19;5052340;28;20312;-78
2023/11/22 04:31:09;;;;;;;3.43;2.87;;;;;;;3.76;100.00;98796.75;5051840;28;20666;-76
2023/11/22 04:33:36;;;;;;;4.60;3.20;;;;;;;3.70;100.00;98805.66;5051122;28;20744;-77
2023/11/22 04:36:02;;;;;;;4.77;3.33;;;;;;;3.73;100.00;98808.16;5051207;28;20204;-76
2023/11/22 04:38:29;;;;;;;4.07;2.93;;;;;;;3.68;100.00;98812.66;5051406;28;20243;-77
2023/11/22 04:40:56;;;;;;;3.73;3.07;;;;;;;3.69;100.00;98814.41;5051053;28;20251;-77
2023/11/22 04:43:23;;;;;;;4.53;3.10;;;;;;;3.70;100.00;98817.84;5050835;28;20224;-77
2023/11/22 04:45:49;;;;;;;4.23;3.10;;;;;;;3.68;100.00;98820.50;5050950;28;20649;-77
2023/11/22 04:48:16;;;;;;;5.27;2.93;;;;;;;3.64;100.00;98824.13;5050966;28;20208;-77
2023/11/22 04:50:43;;;;;;;3.60;2.90;;;;;;;3.63;100.00;98837.25;5050642;28;20207;-77
2023/11/22 04:53:11;;;;;;;3.27;2.77;;;;;;;3.65;100.00;98846.75;5050781;28;20751;-77
2023/11/22 04:55:37;;;;;;;4.20;3.17;;;;;;;3.62;100.00;98846.84;5050732;28;20579;-77
2023/11/22 04:58:05;;;;;;;5.00;3.53;;;;;;;3.63;100.00;98845.97;5054177;28;20203;-77
2023/11/22 05:00:32;;;;;;;4.27;2.80;;;;;;;3.61;100.00;98847.75;5054555;28;20234;-77
2023/11/22 05:02:58;;;;;;;4.63;2.90;;;;;;;3.64;100.00;98839.81;5054653;28;20235;-77
2023/11/22 05:05:25;;;;;;;3.83;2.90;;;;;;;3.64;100.00;98850.28;5054522;28;20208;-77
2023/11/22 05:07:52;;;;;;;3.83;2.70;;;;;;;3.67;100.00;98850.16;5054453;28;20684;-77
2023/11/22 05:10:19;;;;;;;4.20;3.13;;;;;;;3.73;100.00;98864.84;5054582;28;20237;-77
2023/11/22 05:12:45;;;;;;;4.40;3.07;;;;;;;3.72;100.00;98874.41;5054136;28;20247;-77
2023/11/22 05:15:14;;;;;;;4.10;2.90;;;;;;;3.76;100.00;98880.41;5054076;28;20220;-77
2023/11/22 05:17:42;;;;;;;3.90;2.77;;;;;;;3.77;100.00;98875.13;5054701;28;20216;-77
2023/11/22 05:20:10;;;;;;;7.50;2.93;;;;;;;3.75;100.00;98870.84;5054176;28;20244;-77
2023/11/22 05:22:37;;;;;;;3.50;2.77;;;;;;;3.81;100.00;98871.53;5053973;28;20364;-77
2023/11/22 05:25:03;;;;;;;3.73;2.90;;;;;;;3.80;100.00;98882.88;5054087;28;20205;-78
2023/11/22 05:27:32;;;;;;;4.23;3.17;;;;;;;3.69;100.00;98887.59;5054332;28;20311;-77
2023/11/22 05:30:00;;;;;;;3.20;2.90;;;;;;;3.76;100.00;98883.88;5054267;28;20640;-78
2023/11/22 05:32:28;;;;;;;4.30;2.87;;;;;;;3.75;100.00;98878.69;5054978;28;20292;-76
2023/11/22 05:34:55;;;;;;;5.00;3.03;;;;;;;3.69;100.00;98876.28;5054375;28;20209;-77
2023/11/22 05:37:22;;;;;;;4.57;3.20;;;;;;;3.72;100.00;98877.03;5054026;28;20210;-78
2023/11/22 05:39:48;;;;;;;4.10;3.00;;;;;;;3.72;100.00;98869.19;5054178;28;20229;-77
2023/11/22 05:42:14;;;;;;;4.83;3.10;;;;;;;3.74;100.00;98879.59;5055963;28;20233;-78
2023/11/22 05:44:41;;;;;;;3.50;2.77;;;;;;;3.78;100.00;98884.69;5056672;28;20219;-78
2023/11/22 05:47:07;;;;;;;4.97;2.80;;;;;;;3.80;100.00;98882.88;5054305;28;20213;-78
2023/11/22 05:49:35;;;;;;;5.30;2.90;;;;;;;3.83;100.00;98880.19;5054082;28;20204;-78
2023/11/22 05:52:02;;;;;;;5.13;2.93;;;;;;;3.85;100.00;98888.00;5053624;28;20238;-77
2023/11/22 05:54:29;;;;;;;3.27;2.57;;;;;;;3.89;100.00;98886.97;5053791;28;20576;-77
2023/11/22 05:56:56;;;;;;;3.97;2.87;;;;;;;3.83;100.00;98885.41;5053856;28;20209;-77
2023/11/22 05:59:23;;;;;;;3.90;2.90;;;;;;;3.86;100.00;98901.00;5053898;28;20212;-77
2023/11/22 06:01:50;;;;;;;4.10;2.70;;;;;;;3.83;100.00;98898.50;5053850;28;20615;-77
2023/11/22 06:04:16;;;;;;;2.73;2.40;;;;;;;3.82;100.00;98915.09;5054092;28;20596;-79
2023/11/22 06:06:44;;;;;;;4.00;3.00;;;;;;;3.76;100.00;98920.50;5053847;28;20209;-77
2023/11/22 06:09:14;;;;;;;4.67;3.23;;;;;;;3.86;100.00;98919.28;5053476;28;20208;-79
2023/11/22 06:11:40;;;;;;;4.80;2.60;;;;;;;3.81;100.00;98926.44;5053919;28;20232;-77
2023/11/22 06:14:07;;;;;;;3.70;2.83;;;;;;;3.85;100.00;98930.66;5053312;28;20672;-78
2023/11/22 06:16:33;;;;;;;3.50;2.90;;;;;;;3.90;100.00;98934.00;5053887;28;20210;-79
2023/11/22 06:19:00;;;;;;;3.77;2.53;;;;;;;3.83;100.00;98924.63;5053671;28;20558;-79
2023/11/22 06:21:26;;;;;;;3.23;2.40;;;;;;;3.74;100.00;98939.75;5054414;28;20703;-79
2023/11/22 06:23:56;;;;;;;4.23;2.90;;;;;;;3.68;100.00;98939.91;5053937;28;20232;-79
2023/11/22 06:26:22;;;;;;;3.00;2.60;;;;;;;3.64;100.00;98943.50;5053254;28;20205;-78
2023/11/22 06:28:49;;;;;;;4.70;2.80;;;;;;;3.60;100.00;98955.81;5053510;28;20537;-78
2023/11/22 06:31:16;;;;;;;3.30;2.40;;;;;;;3.65;100.00;98955.66;5053213;28;20604;-77
2023/11/22 06:33:42;;;;;;;3.30;2.67;;;;;;;3.69;100.00;98958.19;5053187;28;20212;-78
2023/11/22 06:36:11;;;;;;;3.70;2.63;;;;;;;3.71;100.00;98951.13;5053212;28;20206;-78
2023/11/22 06:38:37;;;;;;;3.97;2.60;;;;;;;3.60;100.00;98947.97;5053278;28;20687;-77
2023/11/22 06:41:06;;;;;;;4.17;2.70;;;;;;;3.71;100.00;98950.25;5053640;28;20240;-77
2023/11/22 06:43:32;;;;;;;6.27;2.40;;;;;;;3.68;100.00;98947.75;5053184;28;20221;-78
2023/11/22 06:45:59;;;;;;;4.77;2.90;;;;;;;3.64;100.00;98944.38;5053663;28;20216;-78
2023/11/22 06:48:26;;;;;;;4.77;2.77;;;;;;;3.51;100.00;98937.78;5053086;28;20215;-77
2023/11/22 06:50:52;;;;;;;5.10;2.53;;;;;;;3.49;100.00;98950.03;5052976;28;20674;-76
2023/11/22 06:53:20;;;;;;;3.90;2.30;;;;;;;3.50;100.00;98962.22;5052145;28;20291;-76
2023/11/22 06:55:46;;;;;;;4.73;2.50;;;;;;;3.40;100.00;98954.66;5052941;28;20254;-78
2023/11/22 06:58:14;;;;;;;3.37;2.37;;;;;;;3.33;100.00;98964.44;5052637;28;20213;-78
2023/11/22 07:00:41;;;;;;;5.00;2.97;;;;;;;3.37;100.00;98971.28;5051963;28;20229;-78
2023/11/22 07:03:07;;;;;;;7.57;3.73;;;;;;;3.29;100.00;98968.03;5052014;28;20210;-78
2023/11/22 07:05:34;;;;;;;7.13;4.43;;;;;;;3.29;100.00;98981.06;5051492;28;20220;-77
2023/11/22 07:08:01;;;;;;;3.50;3.00;;;;;;;3.34;100.00;98981.81;5052056;28;20220;-77
2023/11/22 07:10:28;;;;;;;3.93;3.03;;;;;;;3.35;100.00;98978.31;5052491;28;20204;-78
2023/11/22 07:12:55;;;;;;;4.13;2.73;;;;;;;3.38;100.00;98978.25;5052452;28;20232;-78
2023/11/22 07:15:24;;;;;;;3.93;2.47;;;;;;;3.40;100.00;98976.44;5052414;28;20218;-77
2023/11/22 07:17:50;;;;;;;3.30;2.67;;;;;;;3.38;100.00;98973.00;5050213;28;20435;-77
2023/11/22 07:20:19;;;;;;;3.40;2.20;;;;;;;3.37;100.00;98980.88;5050024;28;20228;-78
2023/11/22 07:22:46;;;;;;;3.10;2.33;;;;;;;3.31;100.00;98981.88;5052591;28;20224;-80
2023/11/22 07:25:17;;;;;;;2.50;1.73;;;;;;;3.25;100.00;98979.44;5053281;28;20215;-79
2023/11/22 07:27:45;;;;;;;4.83;2.57;;;;;;;3.16;100.00;98997.97;5053500;28;20343;-78
2023/11/22 07:30:13;;;;;;;3.17;1.83;;;;;;;3.29;100.00;99003.72;5052462;28;20200;-78
2023/11/22 07:32:41;;;;;;;4.63;2.20;;;;;;;3.18;100.00;99017.06;5052035;28;20271;-80
2023/11/22 07:35:09;;;;;;;2.50;2.07;;;;;;;3.21;100.00;99016.13;5055257;28;20650;-80
2023/11/22 07:37:36;;;;;;;2.90;2.20;;;;;;;3.22;100.00;99023.94;5053317;28;20251;-78
2023/11/22 07:40:03;;;;;;;3.17;2.07;;;;;;;3.28;100.00;99033.34;5054152;28;20202;-78
2023/11/22 07:42:30;;;;;;;3.03;2.20;;;;;;;3.31;100.00;99035.91;5050052;28;20354;-78
2023/11/22 07:44:56;;;;;;;3.13;2.30;;;;;;;3.24;100.00;99036.97;5038360;28;20209;-78
2023/11/22 07:47:24;;;;;;;4.00;2.58;;;;;;;3.21;100.00;99037.03;5065673;28;20422;-78
2023/11/22 07:49:52;;;;;;;5.17;3.30;;;;;;;3.20;100.00;99044.03;5074071;28;20207;-77
2023/11/22 07:52:18;;;;;;;7.27;4.27;;;;;;;3.18;100.00;99032.75;5073462;28;20226;-78
2023/11/22 07:54:45;;;;;;;4.70;3.10;;;;;;;3.08;100.00;99038.25;5073534;28;20218;-79
2023/11/22 07:57:11;;;;;;;5.43;3.40;;;;;;;3.10;100.00;99050.38;5075726;28;20219;-80
2023/11/22 07:59:38;;;;;;;5.10;2.37;;;;;;;3.09;100.00;99046.06;5074223;28;20793;-76
2023/11/22 08:02:10;;;;;;;5.30;3.33;;;;;;;3.03;100.00;99042.72;5073475;28;20609;-78
2023/11/22 08:04:37;;;;;;;3.53;2.70;;;;;;;3.08;100.00;99035.63;5073534;28;20262;-78
2023/11/22 08:07:05;;;;;;;2.97;2.33;;;;;;;3.06;100.00;99043.50;5073351;28;20311;-78
2023/11/22 08:09:32;;;;;;;2.97;2.47;;;;;;;3.00;100.00;99043.66;5073030;28;20212;-78
2023/11/22 08:11:59;;;;;;;3.40;2.17;;;;;;;2.88;100.00;99054.41;5073578;28;20285;-78
2023/11/22 08:14:27;;;;;;;3.60;2.40;;;;;;;2.90;100.00;99050.03;5072341;28;20560;-78
2023/11/22 08:16:54;;;;;;;3.03;2.13;;;;;;;2.86;100.00;99045.75;5072763;28;20212;-78
2023/11/22 08:19:21;;;;;;;3.37;2.50;;;;;;;2.89;100.00;99055.25;5072995;28;20215;-78
2023/11/22 08:21:48;;;;;;;4.07;2.73;;;;;;;2.81;100.00;99050.22;5072830;28;20240;-78
2023/11/22 08:24:16;;;;;;;3.80;2.40;;;;;;;2.77;100.00;99051.22;5072939;28;20211;-78
2023/11/22 08:26:43;;;;;;;3.50;2.63;;;;;;;2.76;100.00;99044.25;5072664;28;20207;-78
2023/11/22 08:29:11;;;;;;;4.17;2.73;;;;;;;2.62;100.00;99041.13;5072717;28;20219;-78
2023/11/22 08:31:37;;;;;;;6.67;2.87;;;;;;;2.70;100.00;99044.38;5074954;28;20713;-78
2023/11/22 08:34:06;;;;;;;4.00;2.63;;;;;;;2.64;100.00;99048.91;5077151;28;20574;-78
2023/11/22 08:36:34;;;;;;;5.13;3.10;;;;;;;2.62;100.00;99046.34;5076968;28;20207;-78
2023/11/22 08:39:00;;;;;;;3.23;2.67;;;;;;;2.67;100.00;99046.22;5076973;28;20208;-78
2023/11/22 08:41:29;;;;;;;3.47;2.50;;;;;;;2.72;100.00;99042.63;5077006;28;20238;-78
2023/11/22 08:43:56;;;;;;;3.60;2.47;;;;;;;2.69;100.00;99047.91;5076894;28;20222;-78
2023/11/22 08:46:23;;;;;;;4.83;2.87;;;;;;;2.67;100.00;99060.13;5076424;28;20204;-78
2023/11/22 08:48:50;;;;;;;4.73;2.80;;;;;;;2.63;100.00;99058.47;5076901;28;20211;-78
2023/11/22 08:51:17;;;;;;;4.60;2.90;;;;;;;2.66;100.00;99062.78;5076287;28;20266;-78
2023/11/22 08:53:44;;;;;;;5.60;2.87;;;;;;;2.77;100.00;99066.00;5076190;28;20749;-78
2023/11/22 08:56:11;;;;;;;3.40;2.37;;;;;;;2.80;100.00;99069.41;5076692;28;20211;-78
2023/11/22 08:58:39;;;;;;;5.30;3.03;;;;;;;2.81;100.00;99075.50;5076456;28;20212;-78
2023/11/22 09:01:06;;;;;;;3.83;2.77;;;;;;;2.88;100.00;99070.06;5076673;28;20309;-78
2023/11/22 09:03:33;;;;;;;4.93;3.13;;;;;;;2.86;100.00;99064.03;5078361;28;20659;-78
2023/11/22 09:06:00;;;;;;;4.10;2.67;;;;;;;2.77;100.00;99051.22;5077223;28;20577;-78
2023/11/22 09:08:26;;;;;;;3.93;2.93;;;;;;;2.77;100.00;99051.22;5075798;28;20222;-78
2023/11/22 09:10:54;;;;;;;3.43;2.47;;;;;;;2.96;100.00;99057.69;5075724;28;20226;-78
2023/11/22 09:13:22;;;;;;;5.00;3.10;;;;;;;2.95;100.00;99055.97;5075513;28;20254;-78
2023/11/22 09:15:50;;;;;;;4.00;2.63;;;;;;;3.01;100.00;99054.97;5075319;28;20209;-78
2023/11/22 09:18:17;;;;;;;4.43;2.80;;;;;;;2.92;99.46;99056.06;5075862;28;20697;-78
2023/11/22 09:20:44;;;;;;;3.93;2.63;;;;;;;2.88;100.00;99057.00;5075963;28;20254;-78
2023/11/22 09:23:11;;;;;;;3.67;2.83;;;;;;;2.87;100.00;99063.13;5076121;28;20259;-77
2023/11/22 09:25:38;;;;;;;3.97;3.03;;;;;;;2.88;100.00;99064.84;5075756;28;20208;-78
2023/11/22 09:28:07;;;;;;;4.03;2.80;;;;;;;2.91;100.00;99075.22;5075912;28;20204;-78
2023/11/22 09:30:35;;;;;;;3.90;3.10;;;;;;;3.00;100.00;99063.69;5075887;28;20212;-78
2023/11/22 09:33:04;;;;;;;3.90;2.87;;;;;;;2.98;100.00;99076.78;5075806;28;20230;-78
2023/11/22 09:35:32;;;;;;;4.53;3.03;;;;;;;3.11;100.00;99077.38;5075692;28;20610;-78
2023/11/22 09:37:59;;;;;;;3.90;2.93;;;;;;;3.13;100.00;99076.41;5076190;28;20261;-78
2023/11/22 09:40:27;;;;;;;4.40;3.00;;;;;;;3.15;100.00;99066.78;5077415;28;20204;-80
2023/11/22 09:42:57;;;;;;;3.80;2.87;;;;;;;3.07;100.00;99070.47;5076500;28;20247;-79
2023/11/22 09:45:25;;;;;;;4.63;3.30;;;;;;;3.18;100.00;99073.69;5075811;28;20220;-79
2023/11/22 09:47:51;;;;;;;5.57;3.40;;;;;;;3.19;100.00;99075.41;5075301;28;20578;-79
2023/11/22 09:50:22;;;;;;;5.63;3.27;;;;;;;3.22;100.00;99081.41;5075679;28;20215;-78
2023/11/22 09:52:53;;;;;;;4.90;3.10;;;;;;;3.21;100.00;99081.44;5076148;28;20231;-78
2023/11/22 09:55:22;;;;;;;5.07;3.15;;;;;;;3.24;100.00;99090.06;5063721;28;20408;-78
2023/11/22 09:57:50;;;;;;;4.30;2.93;;;;;;;3.28;98.98;99090.84;5046384;28;20275;-78
2023/11/22 10:00:18;;;;;;;4.70;3.47;;;;;;;3.21;99.62;99105.81;5053664;28;20209;-78
2023/11/22 10:02:45;;;;;;;4.53;3.47;;;;;;;3.24;99.57;99112.72;5044528;28;20345;-78
2023/11/22 10:05:12;;;;;;;5.17;3.33;;;;;;;3.26;99.63;99113.53;5034266;28;20213;-78
2023/11/22 10:07:41;;;;;;;3.43;3.00;;;;;;;3.38;99.56;99124.56;5034567;28;20210;-78
2023/11/22 10:10:10;;;;;;;4.27;3.30;;;;;;;3.41;100.00;99134.91;5034139;28;20339;-78
2023/11/22 10:12:40;;;;;;;4.00;3.00;;;;;;;3.43;97.77;99122.66;5032991;28;20229;-77
2023/11/22 10:15:13;;;;;;;4.77;3.10;;;;;;;3.35;96.37;99118.50;5043124;28;20850;-78
2023/11/22 10:17:40;;;;;;;4.30;3.37;;;;;;;3.37;97.19;99128.03;5053034;28;20214;-77
2023/11/22 10:20:10;;;;;;;3.57;3.13;;;;;;;3.37;97.61;99124.59;5053152;28;20571;-78
2023/11/22 10:22:47;;;;;;;5.70;3.47;;;;;;;3.27;98.08;99126.56;5053400;28;20294;-78
2023/11/22 10:25:14;;;;;;;4.63;3.20;;;;;;;3.33;99.50;99128.16;5052483;28;20212;-78
2023/11/22 10:27:41;;;;;;;5.90;3.33;;;;;;;3.43;100.00;99127.88;5052838;28;20280;-78
2023/11/22 10:30:09;;;;;;;5.23;3.57;;;;;;;3.46;100.00;99130.44;5052917;28;20217;-78
2023/11/22 10:32:38;;;;;;;4.20;3.17;;;;;;;3.46;100.00;99126.94;5053038;28;20720;-78
2023/11/22 10:35:07;;;;;;;5.10;3.07;;;;;;;3.51;100.00;99130.31;5052524;28;20214;-77
2023/11/22 10:37:33;;;;;;;6.03;3.97;;;;;;;3.65;100.00;99128.19;5052899;28;20218;-78
2023/11/22 10:40:02;;;;;;;5.47;4.00;;;;;;;3.71;100.00;99128.03;5052825;28;20585;-78
2023/11/22 10:42:28;;;;;;;5.93;3.93;;;;;;;3.84;99.68;99108.53;5052454;28;20296;-78
2023/11/22 10:44:57;;;;;;;5.47;3.57;;;;;;;3.75;97.69;99104.41;5051860;28;20216;-77
2023/11/22 10:47:24;;;;;;;4.77;3.43;;;;;;;3.68;98.31;99109.84;5052540;28;20379;-78
2023/11/22 10:49:50;;;;;;;5.13;3.53;;;;;;;3.73;99.98;99113.19;5052848;28;20217;-77
2023/11/22 10:52:19;;;;;;;6.57;3.43;;;;;;;3.75;100.00;99121.84;5036673;28;20223;-78
2023/11/22 10:54:51;;;;;;;4.70;3.70;;;;;;;3.81;98.67;99125.16;5033119;28;20206;-79
2023/11/22 10:57:24;;;;;;;4.67;3.80;;;;;;;3.79;99.09;99121.72;5032010;28;20209;-79
2023/11/22 10:59:55;;;;;;;5.83;4.10;;;;;;;3.92;100.00;99128.31;5031766;28;20206;-80
2023/11/22 11:02:24;;;;;;;4.90;3.33;;;;;;;3.92;98.58;99123.09;5031792;28;20720;-78
2023/11/22 11:04:56;;;;;;;7.33;3.63;;;;;;;3.93;99.15;99131.81;5031505;28;20208;-79
2023/11/22 11:07:26;;;;;;;6.10;3.40;;;;;;;3.95;100.00;99153.53;5031918;28;20215;-79
2023/11/22 11:09:54;;;;;;;5.73;3.87;;;;;;;3.90;99.67;99137.97;5034583;28;20216;-79
2023/11/22 11:12:23;;;;;;;4.47;3.47;;;;;;;3.88;99.59;99142.41;5032938;28;20225;-79
2023/11/22 11:14:50;;;;;;;6.03;3.80;;;;;;;3.88;97.90;99147.63;5031814;28;20226;-76
2023/11/22 11:17:17;;;;;;;5.97;3.80;;;;;;;3.79;98.59;99145.25;5031637;28;20560;-77
2023/11/22 11:19:44;;;;;;;6.53;3.63;;;;;;;3.90;100.00;99155.41;5031051;28;20847;-78
2023/11/22 11:22:11;;;;;;;5.03;4.20;;;;;;;3.95;100.00;99154.41;5031321;28;20236;-77
2023/11/22 11:24:44;;;;;;;5.50;3.70;;;;;;;3.93;99.88;99151.00;5030591;28;20534;-77
2023/11/22 11:27:11;;;;;;;6.47;3.97;;;;;;;3.87;98.82;99151.16;5050129;28;20196;-77
2023/11/22 11:29:42;;;;;;;5.50;4.40;;;;;;;3.84;98.33;99148.59;5051229;28;20502;-77
2023/11/22 11:32:11;;;;;;;4.90;3.70;;;;;;;3.84;98.84;99150.38;5054487;28;20229;-78
2023/11/22 11:34:48;;;;;;;5.17;3.70;;;;;;;3.77;100.00;99149.66;5054153;28;20632;-78